地図

経路データ

SID SEASON NUMBER BASIN SUBBASIN NAME ISO_TIME NATURE LAT LON WMO_WIND WMO_PRES WMO_AGENCY TRACK_TYPE DIST2LAND LANDFALL IFLAG USA_AGENCY USA_ATCF_ID USA_LAT USA_LON USA_RECORD USA_STATUS USA_WIND USA_PRES USA_SSHS USA_R34_NE USA_R34_SE USA_R34_SW USA_R34_NW USA_R50_NE USA_R50_SE USA_R50_SW USA_R50_NW USA_R64_NE USA_R64_SE USA_R64_SW USA_R64_NW USA_POCI USA_ROCI USA_RMW USA_EYE TOKYO_LAT TOKYO_LON TOKYO_GRADE TOKYO_WIND TOKYO_PRES TOKYO_R50_DIR TOKYO_R50_LONG TOKYO_R50_SHORT TOKYO_R30_DIR TOKYO_R30_LONG TOKYO_R30_SHORT TOKYO_LAND CMA_LAT CMA_LON CMA_CAT CMA_WIND CMA_PRES HKO_LAT HKO_LON HKO_CAT HKO_WIND HKO_PRES NEWDELHI_LAT NEWDELHI_LON NEWDELHI_GRADE NEWDELHI_WIND NEWDELHI_PRES NEWDELHI_CI NEWDELHI_DP NEWDELHI_POCI REUNION_LAT REUNION_LON REUNION_TYPE REUNION_WIND REUNION_PRES REUNION_TNUM REUNION_CI REUNION_RMW REUNION_R34_NE REUNION_R34_SE REUNION_R34_SW REUNION_R34_NW REUNION_R50_NE REUNION_R50_SE REUNION_R50_SW REUNION_R50_NW REUNION_R64_NE REUNION_R64_SE REUNION_R64_SW REUNION_R64_NW BOM_LAT BOM_LON BOM_TYPE BOM_WIND BOM_PRES BOM_TNUM BOM_CI BOM_RMW BOM_R34_NE BOM_R34_SE BOM_R34_SW BOM_R34_NW BOM_R50_NE BOM_R50_SE BOM_R50_SW BOM_R50_NW BOM_R64_NE BOM_R64_SE BOM_R64_SW BOM_R64_NW BOM_ROCI BOM_POCI BOM_EYE BOM_POS_METHOD BOM_PRES_METHOD NADI_LAT NADI_LON NADI_CAT NADI_WIND NADI_PRES WELLINGTON_LAT WELLINGTON_LON WELLINGTON_WIND WELLINGTON_PRES DS824_LAT DS824_LON DS824_STAGE DS824_WIND DS824_PRES TD9636_LAT TD9636_LON TD9636_STAGE TD9636_WIND TD9636_PRES TD9635_LAT TD9635_LON TD9635_WIND TD9635_PRES TD9635_ROCI NEUMANN_LAT NEUMANN_LON NEUMANN_CLASS NEUMANN_WIND NEUMANN_PRES MLC_LAT MLC_LON MLC_CLASS MLC_WIND MLC_PRES USA_GUST BOM_GUST BOM_GUST_PER REUNION_GUST REUNION_GUST_PER USA_SEAHGT USA_SEARAD_NE USA_SEARAD_SE USA_SEARAD_SW USA_SEARAD_NW STORM_SPEED STORM_DIR
1985143N16088 1985 38 NI BB NOT_NAMED 1985-05-22 18:00:00 NR 16.2000 87.8000 main 447 432 O_________O___ jtwc_io IO011985 16.2000 87.8000 30 -1 16.2000 87.8000 1 30 5 37
1985143N16088 1985 38 NI BB NOT_NAMED 1985-05-22 21:00:00 NR 16.3920 87.9503 main 436 420 P_________P___ IO011985 16.3925 87.9524 30 -1 16.3915 87.9482 1 30 5 36
1985143N16088 1985 38 NI BB NOT_NAMED 1985-05-23 00:00:00 NR 16.6000 88.1000 main 420 405 O_________O___ jtwc_io IO011985 16.6000 88.1000 30 -1 16.6000 88.1000 1 30 5 33
1985143N16088 1985 38 NI BB NOT_NAMED 1985-05-23 03:00:00 NR 16.8369 88.2505 main 410 386 P_________P___ IO011985 16.8350 88.2426 32 -1 16.8387 88.2585 1 32 6 31
1985143N16088 1985 38 NI BB NOT_NAMED 1985-05-23 06:00:00 NR 17.1028 88.4132 main 386 371 O_________P___ jtwc_io IO011985 17.1000 88.4000 35 0 17.1056 88.4264 1 35 7 31
1985143N16088 1985 38 NI BB NOT_NAMED 1985-05-23 09:00:00 NR 17.3936 88.5956 main 371 360 P_________P___ IO011985 17.3925 88.5851 37 0 17.3947 88.6061 1 37 7 32
1985143N16088 1985 38 NI BB NOT_NAMED 1985-05-23 12:00:00 NR 17.7000 88.8000 main 360 352 O_________O___ jtwc_io IO011985 17.7000 88.8000 40 0 17.7000 88.8000 2 40 7 35
1985143N16088 1985 38 NI BB NOT_NAMED 1985-05-23 15:00:00 NR 17.9975 89.0344 main 352 344 P_________P___ IO011985 17.9925 89.0500 42 0 18.0026 89.0188 2 41 8 37
1985143N16088 1985 38 NI BB NOT_NAMED 1985-05-23 18:00:00 NR 18.3101 89.2750 main 352 336 O_________P___ jtwc_io IO011985 18.3000 89.3000 45 0 18.3201 89.2500 2 42 8 34
1985143N16088 1985 38 NI BB NOT_NAMED 1985-05-23 21:00:00 NR 18.6475 89.4982 main 338 297 P_________P___ IO011985 18.6425 89.5150 45 0 18.6526 89.4813 2 43 8 30
1985143N16088 1985 38 NI BB NOT_NAMED 1985-05-24 00:00:00 NR 19.0000 89.7000 main 297 267 O_________O___ jtwc_io IO011985 19.0000 89.7000 45 0 19.0000 89.7000 2 45 8 27
1985143N16088 1985 38 NI BB NOT_NAMED 1985-05-24 03:00:00 NR 19.3413 89.8680 main 270 232 P_________P___ IO011985 19.3424 89.8502 47 0 19.3402 89.8859 2 47 8 24
1985143N16088 1985 38 NI BB NOT_NAMED 1985-05-24 06:00:00 NR 19.6987 90.0292 main 232 190 O_________P___ jtwc_io IO011985 19.7000 90.0000 50 0 19.6973 90.0583 2 50 8 23
1985143N16088 1985 38 NI BB NOT_NAMED 1985-05-24 09:00:00 NR 20.0829 90.2059 main 190 146 P_________P___ IO011985 20.0850 90.1851 52 0 20.0808 90.2266 2 52 9 23
1985143N16088 1985 38 NI BB NOT_NAMED 1985-05-24 12:00:00 NR 20.5000 90.4000 main 146 108 O_________O___ jtwc_io IO011985 20.5000 90.4000 55 0 20.5000 90.4000 2 55 9 25
1985143N16088 1985 38 NI BB NOT_NAMED 1985-05-24 15:00:00 NR 20.9246 90.6255 main 108 70 P_________P___ IO011985 20.9276 90.6575 57 0 20.9216 90.5935 2 56 10 25
1985143N16088 1985 38 NI BB NOT_NAMED 1985-05-24 18:00:00 NR 21.3921 90.8469 main 70 38 O_________P___ jtwc_io IO011985 21.4000 90.9000 60 0 21.3841 90.7937 2 57 11 21
1985143N16088 1985 38 NI BB NOT_NAMED 1985-05-24 21:00:00 NR 21.9085 91.0275 main 38 23 P_________P___ IO011985 21.9124 91.0579 60 0 21.9046 90.9970 2 58 12 17
1985143N16088 1985 38 NI BB NOT_NAMED 1985-05-25 00:00:00 NR 22.5000 91.2000 main 23 0 O_________O___ jtwc_io IO011985 22.5000 91.2000 60 0 22.5000 91.2000 2 60 13 15
1985143N16088 1985 38 NI BB NOT_NAMED 1985-05-25 03:00:00 NR 23.1761 91.3923 main 0 0 P_________P___ IO011985 23.1751 91.3843 45 0 23.1770 91.4003 2 45 15 15
1985143N16088 1985 38 NI BB NOT_NAMED 1985-05-25 06:00:00 NR 23.9000 91.6000 main 0 O_________O___ jtwc_io IO011985 23.9000 91.6000 30 -1 23.9000 91.6000 1 30 15 15

IBTrACS Databaseについて

本データベースは、米国NOAAが公開する1842年以降の世界の熱帯低気圧のベストトラックデータアーカイブInternational Best Track Archive for Climate Stewardship (IBTrACS)を、ウェブで閲覧しやすい形式に変換したものです。

最終更新日:2021-11-26